Time;durP1;ratioP1;P1;durP2;ratioP2;P2;SDS_P1;SDS_P2;PMS_P1;PMS_P2;Temp;Humidity;BMP_temperature;BMP_pressure;BME280_temperature;BME280_humidity;BME280_pressure;Samples;Min_cycle;Max_cycle;Signal;HPM_P1;HPM_P2
2021/08/05 00:01:25;;;;;;;12.75;7.28;;;;;13.90;102024.00;;;;5109690;27;20049;-78
2021/08/05 00:03:52;;;;;;;8.45;7.22;;;;;13.80;102051.00;;;;5109450;28;20104;-77
2021/08/05 00:06:18;;;;;;;13.65;9.90;;;;;13.80;102017.00;;;;5109288;27;20024;-79
2021/08/05 00:08:45;;;;;;;13.48;11.38;;;;;13.80;102021.00;;;;5109369;28;20024;-77
2021/08/05 00:11:11;;;;;;;18.67;11.57;;;;;13.80;102046.00;;;;5109844;28;20589;-77
2021/08/05 00:13:38;;;;;;;11.02;8.65;;;;;13.80;102036.00;;;;5104920;28;20039;-77
2021/08/05 00:16:05;;;;;;;15.45;9.15;;;;;13.80;102047.00;;;;5097849;28;21235;-77
2021/08/05 00:18:31;;;;;;;14.15;8.95;;;;;13.70;102027.00;;;;5109460;28;20043;-79
2021/08/05 00:20:58;;;;;;;12.27;9.60;;;;;13.70;102061.00;;;;5109528;28;20401;-78
2021/08/05 00:23:25;;;;;;;13.73;10.10;;;;;13.70;102058.00;;;;5108775;28;20032;-78
2021/08/05 00:25:52;;;;;;;13.20;9.23;;;;;13.70;102061.00;;;;5108859;28;20024;-78
2021/08/05 00:28:18;;;;;;;11.00;9.05;;;;;13.70;102063.00;;;;5109141;28;20020;-78
2021/08/05 00:30:45;;;;;;;11.80;8.35;;;;;13.70;102037.00;;;;5108742;28;20019;-78
2021/08/05 00:33:11;;;;;;;11.68;9.05;;;;;13.70;102050.00;;;;5108153;28;20069;-78
2021/08/05 00:35:38;;;;;;;14.27;9.07;;;;;13.70;102059.00;;;;5108796;28;20027;-78
2021/08/05 00:38:04;;;;;;;10.80;7.68;;;;;13.70;102052.00;;;;5108852;28;20134;-78
2021/08/05 00:40:31;;;;;;;10.40;8.68;;;;;13.70;102056.00;;;;5108903;28;20023;-78
2021/08/05 00:42:58;;;;;;;16.42;8.93;;;;;13.60;102062.00;;;;5108814;28;20034;-77
2021/08/05 00:45:24;;;;;;;7.20;6.38;;;;;13.70;102050.00;;;;5108918;28;20023;-77
2021/08/05 00:47:51;;;;;;;8.68;5.70;;;;;13.70;102057.00;;;;5108196;28;20054;-77
2021/08/05 00:50:17;;;;;;;8.02;6.10;;;;;13.60;102027.00;;;;5108315;28;20536;-77
2021/08/05 00:52:44;;;;;;;7.63;5.78;;;;;13.60;102037.00;;;;5108075;28;20077;-78
2021/08/05 00:55:11;;;;;;;7.10;4.50;;;;;13.60;102024.00;;;;5109192;28;20034;-77
2021/08/05 00:57:38;;;;;;;7.75;5.25;;;;;13.50;102038.00;;;;5108906;28;20038;-77
2021/08/05 01:00:05;;;;;;;4.82;3.35;;;;;13.50;102012.00;;;;5108117;28;20031;-77
2021/08/05 01:02:41;;;;;;;6.75;4.88;;;;;13.50;101975.00;;;;5105768;28;20160;-77
2021/08/05 01:05:08;;;;;;;6.30;4.93;;;;;13.50;102038.00;;;;5108397;28;20034;-77
2021/08/05 01:07:53;;;;;;;6.95;5.15;;;;;13.40;102027.00;;;;5108298;27;20065;-77
2021/08/05 01:10:23;;;;;;;7.57;4.97;;;;;13.30;102035.00;;;;5108149;28;20035;-77
2021/08/05 01:13:19;;;;;;;6.70;4.82;;;;;13.20;102009.00;;;;5107530;27;20039;-77
2021/08/05 01:15:50;;;;;;;7.43;4.60;;;;;13.00;102042.00;;;;5108054;28;20384;-77
2021/08/05 01:18:38;;;;;;;7.40;4.22;;;;;12.90;102047.00;;;;5108175;28;20525;-77
2021/08/05 01:21:15;;;;;;;5.72;3.53;;;;;12.80;102048.00;;;;5108534;28;20031;-77
2021/08/05 01:23:57;;;;;;;6.60;4.13;;;;;12.60;102047.00;;;;5108272;28;20027;-77
2021/08/05 01:26:47;;;;;;;5.85;3.70;;;;;12.50;102058.00;;;;5102649;28;20031;-77
2021/08/05 01:29:15;;;;;;;5.32;3.70;;;;;12.40;102042.00;;;;5097811;28;20031;-77
2021/08/05 01:31:43;;;;;;;5.18;3.63;;;;;12.40;102037.00;;;;5096359;28;20117;-78
2021/08/05 01:34:15;;;;;;;3.13;2.83;;;;;12.30;102034.00;;;;5096063;28;20057;-79
2021/08/05 01:36:47;;;;;;;4.43;2.53;;;;;12.20;102010.00;;;;5096317;28;20027;-77
2021/08/05 01:39:14;;;;;;;3.88;2.33;;;;;12.10;102015.00;;;;5089422;28;20035;-76
2021/08/05 01:41:43;;;;;;;3.97;2.88;;;;;12.00;102020.00;;;;5087677;28;20020;-77
2021/08/05 01:44:12;;;;;;;3.92;3.08;;;;;11.90;102033.00;;;;5086164;28;20448;-78
2021/08/05 01:46:39;;;;;;;5.00;3.05;;;;;11.80;102045.00;;;;5087463;28;20028;-78
2021/08/05 01:49:07;;;;;;;3.95;2.95;;;;;11.80;102036.00;;;;5087096;28;20398;-78
2021/08/05 01:51:35;;;;;;;5.65;3.10;;;;;11.90;102040.00;;;;5087303;28;20038;-78
2021/08/05 01:54:02;;;;;;;4.85;2.47;;;;;11.80;102023.00;;;;5087551;28;20035;-78
2021/08/05 01:56:29;;;;;;;2.95;2.72;;;;;11.70;102042.00;;;;5087121;28;20038;-78
2021/08/05 01:58:57;;;;;;;5.97;2.95;;;;;11.70;102054.00;;;;5086758;28;20060;-79
2021/08/05 02:01:24;;;;;;;2.92;2.72;;;;;11.70;102033.00;;;;5087239;28;20474;-78
2021/08/05 02:04:05;;;;;;;3.95;2.30;;;;;11.70;102057.00;;;;5087330;28;20495;-78
2021/08/05 02:06:36;;;;;;;5.15;2.33;;;;;11.60;102024.00;;;;5087251;28;20413;-78
2021/08/05 02:09:11;;;;;;;2.13;1.80;;;;;11.60;102060.00;;;;5086514;28;20040;-78
2021/08/05 02:11:42;;;;;;;5.05;2.35;;;;;11.60;102022.00;;;;5087530;28;20503;-79
2021/08/05 02:14:13;;;;;;;4.53;2.97;;;;;11.50;102046.00;;;;5087361;28;20032;-78
2021/08/05 02:16:41;;;;;;;;;;;;;11.50;102044.00;;;;5087347;28;20135;-76
2021/08/05 02:19:08;;;;;;;3.08;2.03;;;;;11.50;102031.00;;;;5086790;28;19963;-78
2021/08/05 02:21:36;;;;;;;3.40;2.17;;;;;11.50;102012.00;;;;5086444;28;20051;-78
2021/08/05 02:24:04;;;;;;;3.03;2.20;;;;;11.40;102056.00;;;;5086508;28;20036;-78
2021/08/05 02:26:31;;;;;;;4.28;1.98;;;;;11.40;102035.00;;;;5087022;28;20380;-78
2021/08/05 02:28:58;;;;;;;4.15;2.00;;;;;11.30;102020.00;;;;5086937;28;20032;-78
2021/08/05 02:31:25;;;;;;;3.45;1.83;;;;;11.30;102040.00;;;;5086468;28;20034;-78
2021/08/05 02:33:53;;;;;;;3.00;2.00;;;;;11.30;102042.00;;;;5086658;28;20058;-77
2021/08/05 02:36:19;;;;;;;6.13;1.85;;;;;11.20;102053.00;;;;5086591;28;20039;-78
2021/08/05 02:38:46;;;;;;;5.50;1.83;;;;;11.20;102053.00;;;;5086819;28;20031;-79
2021/08/05 02:41:15;;;;;;;6.07;2.40;;;;;11.30;102051.00;;;;5086933;28;20410;-78
2021/08/05 02:43:42;;;;;;;2.97;1.75;;;;;11.30;102051.00;;;;5086822;28;20059;-78
2021/08/05 02:46:10;;;;;;;3.15;1.85;;;;;11.30;102060.00;;;;5086714;28;20039;-78
2021/08/05 02:48:37;;;;;;;3.17;1.75;;;;;11.20;102055.00;;;;5086743;28;20032;-78
2021/08/05 02:51:04;;;;;;;2.35;1.85;;;;;11.30;102039.00;;;;5087040;28;20464;-78
2021/08/05 02:53:32;;;;;;;4.32;1.95;;;;;11.30;102065.00;;;;5087019;28;20032;-78
2021/08/05 02:55:59;;;;;;;6.38;2.30;;;;;11.30;102039.00;;;;5088912;28;20047;-78
2021/08/05 02:58:26;;;;;;;4.55;2.17;;;;;11.30;102059.00;;;;5090348;28;20028;-79
2021/08/05 03:00:52;;;;;;;2.55;1.65;;;;;11.20;102053.00;;;;5090597;28;20032;-79
2021/08/05 03:03:23;;;;;;;4.05;1.60;;;;;11.20;102039.00;;;;5089826;28;20028;-78
2021/08/05 03:05:52;;;;;;;3.80;1.67;;;;;11.20;102053.00;;;;5090441;28;20036;-78
2021/08/05 03:08:19;;;;;;;3.50;2.03;;;;;11.20;102057.00;;;;5090183;28;20027;-79
2021/08/05 03:10:45;;;;;;;5.25;2.80;;;;;11.30;102053.00;;;;5090276;28;20040;-79
2021/08/05 03:13:12;;;;;;;3.80;2.45;;;;;11.20;102063.00;;;;5090397;28;20064;-78
2021/08/05 03:15:39;;;;;;;6.18;2.53;;;;;11.30;102046.00;;;;5090151;28;20032;-78
2021/08/05 03:18:05;;;;;;;7.10;3.00;;;;;11.30;102059.00;;;;5090365;28;20052;-78
2021/08/05 03:20:32;;;;;;;3.50;2.33;;;;;11.20;102069.00;;;;5090282;28;20141;-78
2021/08/05 03:22:59;;;;;;;4.03;2.42;;;;;11.30;102041.00;;;;5089781;28;20020;-78
2021/08/05 03:25:27;;;;;;;5.70;3.15;;;;;11.40;102062.00;;;;5089856;28;20058;-78
2021/08/05 03:27:55;;;;;;;5.38;2.45;;;;;11.30;102054.00;;;;5090393;28;20499;-78
2021/08/05 03:30:21;;;;;;;6.50;2.35;;;;;11.40;102048.00;;;;5089287;28;20390;-78
2021/08/05 03:32:48;;;;;;;5.45;3.35;;;;;11.30;102065.00;;;;5090153;28;20032;-78
2021/08/05 03:35:14;;;;;;;3.08;2.40;;;;;11.40;102042.00;;;;5090195;28;20444;-77
2021/08/05 03:37:41;;;;;;;5.03;3.00;;;;;11.40;102049.00;;;;5089991;28;20027;-77
2021/08/05 03:40:08;;;;;;;3.17;2.70;;;;;11.50;102054.00;;;;5090007;28;20112;-78
2021/08/05 03:42:35;;;;;;;4.32;2.42;;;;;11.40;102065.00;;;;5089594;28;20486;-77
2021/08/05 03:45:01;;;;;;;2.97;2.17;;;;;11.30;102048.00;;;;5087820;28;20119;-78
2021/08/05 03:47:28;;;;;;;3.30;1.80;;;;;11.30;102026.00;;;;5088227;28;20132;-77
2021/08/05 03:49:55;;;;;;;6.00;2.15;;;;;11.30;102035.00;;;;5089428;28;20158;-78
2021/08/05 03:52:21;;;;;;;4.15;2.35;;;;;11.30;102018.00;;;;5089349;28;20615;-77
2021/08/05 03:54:48;;;;;;;4.47;2.38;;;;;11.20;102032.00;;;;5089357;28;20032;-77
2021/08/05 03:57:14;;;;;;;5.07;2.22;;;;;11.10;102062.00;;;;5090124;28;20070;-77
2021/08/05 03:59:41;;;;;;;6.38;2.22;;;;;11.20;102037.00;;;;5088673;28;20028;-78
2021/08/05 04:02:07;;;;;;;3.88;2.20;;;;;11.20;102024.00;;;;5089407;28;20040;-77
2021/08/05 04:04:34;;;;;;;3.60;2.30;;;;;11.20;102054.00;;;;5089191;28;20031;-78
2021/08/05 04:07:01;;;;;;;3.10;1.70;;;;;11.00;102076.00;;;;5089027;28;20031;-77
2021/08/05 04:09:27;;;;;;;2.50;1.75;;;;;11.00;102048.00;;;;5089012;28;20064;-77
2021/08/05 04:11:54;;;;;;;4.25;1.88;;;;;11.10;102074.00;;;;5088919;28;20028;-77
2021/08/05 04:14:20;;;;;;;2.72;2.35;;;;;11.20;102054.00;;;;5089506;28;20032;-78
2021/08/05 04:16:47;;;;;;;4.13;2.72;;;;;11.20;102075.00;;;;5089234;28;20526;-78
2021/08/05 04:19:13;;;;;;;5.90;2.22;;;;;11.30;102061.00;;;;5089446;28;20043;-77
2021/08/05 04:21:40;;;;;;;5.22;2.53;;;;;11.30;102075.00;;;;5087707;28;20186;-78
2021/08/05 04:24:06;;;;;;;2.83;2.25;;;;;11.20;102078.00;;;;5088683;28;20487;-77
2021/08/05 04:26:33;;;;;;;6.57;2.08;;;;;11.10;102082.00;;;;5088643;28;20032;-77
2021/08/05 04:28:59;;;;;;;4.45;2.50;;;;;11.10;102046.00;;;;5088813;28;20058;-78
2021/08/05 04:31:26;;;;;;;7.53;2.83;;;;;11.10;102061.00;;;;5088704;28;20099;-78
2021/08/05 04:33:53;;;;;;;49.20;3.33;;;;;11.00;102079.00;;;;5088499;28;20032;-78
2021/08/05 04:36:20;;;;;;;3.45;2.08;;;;;11.00;102073.00;;;;5088671;28;20546;-78
2021/08/05 04:38:46;;;;;;;3.13;1.80;;;;;10.90;102053.00;;;;5088977;28;20032;-78
2021/08/05 04:41:13;;;;;;;1.75;1.50;;;;;10.80;102051.00;;;;5088511;28;20036;-78
2021/08/05 04:43:39;;;;;;;3.00;1.83;;;;;10.60;101997.00;;;;5088796;28;20032;-78
2021/08/05 04:46:06;;;;;;;4.80;2.55;;;;;10.60;102077.00;;;;5088338;28;20028;-78
2021/08/05 04:48:32;;;;;;;20.63;3.90;;;;;10.60;102073.00;;;;5088374;28;20181;-78
2021/08/05 04:50:59;;;;;;;57.30;3.97;;;;;10.50;102081.00;;;;5088350;28;20028;-77
2021/08/05 04:53:25;;;;;;;89.88;5.47;;;;;10.50;102082.00;;;;5088163;28;20020;-77
2021/08/05 04:55:52;;;;;;;24.85;4.82;;;;;10.50;102065.00;;;;5088714;28;20032;-78
2021/08/05 04:58:19;;;;;;;47.30;4.85;;;;;10.40;102091.00;;;;5086854;28;20411;-77
2021/08/05 05:00:47;;;;;;;100.05;5.40;;;;;10.40;102069.00;;;;5088193;28;20074;-78
2021/08/05 05:03:13;;;;;;;33.25;4.82;;;;;10.40;102098.00;;;;5088851;28;20082;-78
2021/08/05 05:05:40;;;;;;;16.70;4.72;;;;;10.40;102069.00;;;;5088134;28;20024;-78
2021/08/05 05:08:19;;;;;;;7.63;4.72;;;;;10.40;102058.00;;;;5087913;28;20035;-78
2021/08/05 05:10:47;;;;;;;9.95;4.65;;;;;10.50;102081.00;;;;5087952;28;20034;-78
2021/08/05 05:13:14;;;;;;;8.20;5.28;;;;;10.60;102092.00;;;;5087830;28;20028;-78
2021/08/05 05:15:42;;;;;;;17.58;5.13;;;;;10.70;102080.00;;;;5088165;28;20081;-77
2021/08/05 05:18:09;;;;;;;18.08;5.18;;;;;10.60;102072.00;;;;5086817;28;20131;-77
2021/08/05 05:20:37;;;;;;;73.88;6.95;;;;;10.70;102091.00;;;;5087530;28;20028;-77
2021/08/05 05:23:05;;;;;;;127.25;8.27;;;;;10.80;102081.00;;;;5087764;28;20050;-77
2021/08/05 05:25:32;;;;;;;196.10;8.63;;;;;10.90;102087.00;;;;5087875;28;20020;-77
2021/08/05 05:27:59;;;;;;;338.77;12.48;;;;;11.00;102085.00;;;;5087961;28;20069;-77
2021/08/05 05:30:26;;;;;;;456.63;16.33;;;;;11.10;102090.00;;;;5087414;28;20066;-78
2021/08/05 05:32:56;;;;;;;384.25;14.80;;;;;11.30;102090.00;;;;5087247;28;20035;-78
2021/08/05 05:35:22;;;;;;;503.95;17.25;;;;;11.40;102073.00;;;;5086058;28;20077;-77
2021/08/05 05:37:54;;;;;;;335.38;14.55;;;;;11.40;102040.00;;;;5088133;28;20484;-77
2021/08/05 05:40:22;;;;;;;266.88;13.05;;;;;11.40;102033.00;;;;5087604;28;20111;-78
2021/08/05 05:42:50;;;;;;;316.08;12.05;;;;;11.40;102060.00;;;;5087684;28;20028;-79
2021/08/05 05:45:17;;;;;;;243.57;13.05;;;;;11.50;102042.00;;;;5085879;28;20032;-78
2021/08/05 05:47:44;;;;;;;214.15;11.68;;;;;11.60;102025.00;;;;5087680;28;20368;-78
2021/08/05 05:50:12;;;;;;;238.23;12.45;;;;;11.60;102049.00;;;;5087256;28;20034;-78
2021/08/05 05:52:40;;;;;;;248.88;12.40;;;;;11.60;102040.00;;;;5086954;28;20380;-80
2021/08/05 05:55:07;;;;;;;313.40;14.45;;;;;11.60;102055.00;;;;5087264;28;20680;-77
2021/08/05 05:57:34;;;;;;;178.70;10.40;;;;;11.60;102015.00;;;;5086892;28;20434;-77
2021/08/05 06:00:01;;;;;;;298.30;14.10;;;;;11.60;102035.00;;;;5087186;28;20487;-78
2021/08/05 06:02:28;;;;;;;223.50;12.07;;;;;11.60;102038.00;;;;5087349;28;20024;-78
2021/08/05 06:04:54;;;;;;;211.15;10.32;;;;;11.60;102020.00;;;;5087292;28;20107;-77
2021/08/05 06:07:21;;;;;;;435.40;14.95;;;;;11.70;102021.00;;;;5087015;28;20032;-78
2021/08/05 06:09:47;;;;;;;494.40;15.85;;;;;11.70;102009.00;;;;5087195;28;20132;-77
2021/08/05 06:12:14;;;;;;;407.60;15.68;;;;;11.70;102011.00;;;;5086891;28;20119;-78
2021/08/05 06:14:41;;;;;;;356.23;12.65;;;;;11.60;102027.00;;;;5087333;28;20041;-78
2021/08/05 06:17:08;;;;;;;275.38;12.57;;;;;11.60;101991.00;;;;5086112;28;20072;-78
2021/08/05 06:19:34;;;;;;;301.30;11.40;;;;;11.50;101999.00;;;;5087232;28;20035;-78
2021/08/05 06:22:01;;;;;;;221.98;10.43;;;;;11.50;102018.00;;;;5086789;28;20032;-78
2021/08/05 06:24:28;;;;;;;246.13;11.25;;;;;11.50;102015.00;;;;5087211;28;20082;-78
2021/08/05 06:26:54;;;;;;;260.98;10.38;;;;;11.50;102028.00;;;;5086779;28;20040;-77
2021/08/05 06:29:21;;;;;;;258.60;10.30;;;;;11.50;102044.00;;;;5087409;28;20107;-77
2021/08/05 06:31:48;;;;;;;212.80;9.63;;;;;11.50;102038.00;;;;5090056;28;20039;-77
2021/08/05 06:34:14;;;;;;;206.60;10.65;;;;;11.60;102003.00;;;;5090641;28;20126;-78
2021/08/05 06:36:41;;;;;;;162.25;9.45;;;;;11.50;102006.00;;;;5090991;28;20039;-79
2021/08/05 06:39:08;;;;;;;149.80;9.80;;;;;11.50;101994.00;;;;5090519;28;20024;-77
2021/08/05 06:41:34;;;;;;;125.10;9.18;;;;;11.50;102015.00;;;;5090537;28;20024;-77
2021/08/05 06:44:01;;;;;;;119.78;10.25;;;;;11.40;101983.00;;;;5090558;28;20032;-78
2021/08/05 06:46:27;;;;;;;111.95;8.18;;;;;11.40;101978.00;;;;5090725;28;20069;-78
2021/08/05 06:48:54;;;;;;;143.75;8.82;;;;;11.40;102000.00;;;;5090667;28;20024;-77
2021/08/05 06:51:20;;;;;;;86.18;8.00;;;;;11.40;102006.00;;;;5090715;28;20032;-78
2021/08/05 06:53:47;;;;;;;102.57;10.13;;;;;11.40;102002.00;;;;5090695;28;20123;-77
2021/08/05 06:56:14;;;;;;;64.75;7.78;;;;;11.40;101975.00;;;;5090487;28;20144;-77
2021/08/05 06:58:40;;;;;;;69.90;7.88;;;;;11.40;101972.00;;;;5090187;28;20059;-78
2021/08/05 07:01:07;;;;;;;72.75;8.02;;;;;11.40;101985.00;;;;5090314;28;20036;-77
2021/08/05 07:03:33;;;;;;;89.63;7.82;;;;;11.40;101966.00;;;;5090616;28;20119;-77
2021/08/05 07:19:42;;;;;;;77.28;6.63;;;;;11.30;101956.00;;;;5066524;28;20353;-78
2021/08/05 07:22:09;;;;;;;86.25;6.28;;;;;11.10;101948.00;;;;5089697;28;20084;-77
2021/08/05 07:24:36;;;;;;;93.53;6.30;;;;;11.00;101934.00;;;;5090877;28;20036;-77
2021/08/05 07:27:03;;;;;;;74.15;6.28;;;;;10.90;101941.00;;;;5090041;28;20032;-77
2021/08/05 07:29:30;;;;;;;47.97;6.40;;;;;10.90;101945.00;;;;5090012;28;20632;-78
2021/08/05 07:32:01;;;;;;;93.78;7.05;;;;;10.90;101952.00;;;;5090520;28;20020;-77
2021/08/05 07:34:27;;;;;;;34.00;5.38;;;;;10.90;101955.00;;;;5090341;28;20158;-77
2021/08/05 07:36:54;;;;;;;34.03;6.05;;;;;10.90;101935.00;;;;5089384;28;20548;-77
2021/08/05 07:39:20;;;;;;;42.85;6.32;;;;;10.90;101934.00;;;;5089908;28;20030;-78
2021/08/05 07:41:47;;;;;;;57.25;6.28;;;;;10.80;101970.00;;;;5089253;28;20035;-77
2021/08/05 07:44:14;;;;;;;68.32;6.45;;;;;10.80;101926.00;;;;5089210;28;20032;-77
2021/08/05 07:46:42;;;;;;;81.43;6.65;;;;;10.80;101942.00;;;;5089190;28;20029;-78
2021/08/05 07:49:09;;;;;;;66.57;4.68;;;;;10.80;101934.00;;;;5089390;28;20613;-78
2021/08/05 07:51:36;;;;;;;51.75;5.25;;;;;10.80;101936.00;;;;5090106;28;20055;-78
2021/08/05 07:54:02;;;;;;;37.53;5.72;;;;;10.80;101932.00;;;;5089990;28;20138;-78
2021/08/05 07:56:29;;;;;;;31.30;4.80;;;;;10.70;101934.00;;;;5089547;28;20024;-78
2021/08/05 07:58:55;;;;;;;111.28;8.20;;;;;10.70;101952.00;;;;5089827;28;20294;-78
2021/08/05 08:01:22;;;;;;;74.18;7.85;;;;;10.70;101960.00;;;;5087426;28;20226;-78
2021/08/05 08:03:49;;;;;;;57.28;6.70;;;;;10.70;101946.00;;;;5089437;28;20046;-77
2021/08/05 08:06:16;;;;;;;42.05;5.28;;;;;10.70;101958.00;;;;5089418;28;20031;-78
2021/08/05 08:08:42;;;;;;;66.05;5.90;;;;;10.70;101924.00;;;;5089308;28;20028;-78
2021/08/05 08:11:09;;;;;;;41.55;4.93;;;;;10.60;101918.00;;;;5088922;28;20509;-78
2021/08/05 08:13:36;;;;;;;106.55;7.05;;;;;10.50;101947.00;;;;5088632;28;20036;-77
2021/08/05 08:16:02;;;;;;;59.03;5.18;;;;;10.40;101926.00;;;;5089149;28;20083;-77
2021/08/05 08:18:29;;;;;;;87.25;5.82;;;;;10.30;101926.00;;;;5088608;28;20020;-77
2021/08/05 08:20:56;;;;;;;83.53;5.45;;;;;10.30;101932.00;;;;5088614;28;20545;-77
2021/08/05 08:23:26;;;;;;;17.90;4.30;;;;;10.20;101932.00;;;;5088588;28;20048;-78
2021/08/05 08:25:53;;;;;;;39.17;3.83;;;;;10.20;101916.00;;;;5088986;28;20432;-78
2021/08/05 08:28:19;;;;;;;38.15;4.05;;;;;10.10;101916.00;;;;5088739;28;20040;-78
2021/08/05 08:30:46;;;;;;;88.90;5.13;;;;;10.10;101930.00;;;;5088662;28;20399;-77
2021/08/05 08:33:12;;;;;;;96.22;5.30;;;;;10.10;101901.00;;;;5088872;28;20039;-77
2021/08/05 08:35:39;;;;;;;67.50;5.05;;;;;10.00;101903.00;;;;5088958;28;20047;-77
2021/08/05 08:38:07;;;;;;;63.05;4.97;;;;;10.00;101914.00;;;;5088429;28;20028;-78
2021/08/05 08:40:34;;;;;;;40.63;4.40;;;;;9.90;101919.00;;;;5088456;28;20039;-78
2021/08/05 08:43:01;;;;;;;8.38;3.38;;;;;9.70;101894.00;;;;5088206;28;20106;-78
2021/08/05 08:45:27;;;;;;;339.60;11.40;;;;;9.80;101912.00;;;;5088348;28;20455;-78
2021/08/05 08:47:55;;;;;;;265.10;9.88;;;;;9.80;101922.00;;;;5087524;28;20028;-78
2021/08/05 08:50:32;;;;;;;335.63;11.85;;;;;9.80;101947.00;;;;5087930;28;20028;-78
2021/08/05 08:53:03;;;;;;;431.20;14.52;;;;;9.80;101947.00;;;;5087265;28;20044;-78
2021/08/05 08:55:31;;;;;;;;;;;;;9.80;101941.00;;;;5088462;28;20521;-78
2021/08/05 08:58:00;;;;;;;277.52;10.05;;;;;9.80;101930.00;;;;5087925;28;20374;-78
2021/08/05 09:00:26;;;;;;;145.50;7.35;;;;;9.80;101925.00;;;;5087819;28;20067;-78
2021/08/05 09:02:55;;;;;;;265.48;9.10;;;;;9.80;101921.00;;;;5087624;28;20048;-78
2021/08/05 09:05:21;;;;;;;196.75;8.20;;;;;9.80;101901.00;;;;5087183;28;20032;-78
2021/08/05 09:07:48;;;;;;;129.13;9.63;;;;;9.80;101898.00;;;;5087807;28;20498;-78
2021/08/05 09:10:15;;;;;;;250.05;9.60;;;;;9.80;101891.00;;;;5087545;28;20524;-79
2021/08/05 09:12:44;;;;;;;327.65;9.98;;;;;9.80;101894.00;;;;5087820;28;20028;-78
2021/08/05 09:15:11;;;;;;;428.60;12.43;;;;;9.70;101890.00;;;;5087472;28;20032;-78
2021/08/05 09:17:43;;;;;;;441.80;12.25;;;;;9.70;101902.00;;;;5087601;28;20082;-78
2021/08/05 09:20:12;;;;;;;445.77;11.85;;;;;9.60;101906.00;;;;5087259;28;20051;-78
2021/08/05 09:22:43;;;;;;;363.58;9.90;;;;;9.60;101899.00;;;;5087127;28;20508;-78
2021/08/05 09:25:26;;;;;;;349.52;10.88;;;;;9.60;101923.00;;;;5087408;28;21075;-77
2021/08/05 09:27:59;;;;;;;305.00;8.57;;;;;9.60;101896.00;;;;5087975;28;20032;-78
2021/08/05 09:30:38;;;;;;;290.77;9.07;;;;;9.60;101919.00;;;;5087475;28;20031;-79
2021/08/05 09:33:15;;;;;;;163.82;7.28;;;;;9.70;101906.00;;;;5087368;28;20441;-79
2021/08/05 09:35:44;;;;;;;93.75;4.88;;;;;9.70;101913.00;;;;5086050;28;20024;-79
2021/08/05 09:38:16;;;;;;;147.10;6.10;;;;;9.80;101895.00;;;;5087166;28;20546;-78
2021/08/05 09:40:43;;;;;;;83.85;9.18;;;;;10.00;101888.00;;;;5085741;28;20024;-78
2021/08/05 09:43:10;;;;;;;51.40;5.55;;;;;10.00;101895.00;;;;5087844;28;20030;-78
2021/08/05 09:45:39;;;;;;;174.32;6.45;;;;;10.00;101911.00;;;;5088406;28;20024;-78
2021/08/05 09:48:06;;;;;;;152.85;14.35;;;;;10.10;101934.00;;;;5085857;28;20024;-78
2021/08/05 09:50:33;;;;;;;240.43;8.85;;;;;10.20;101906.00;;;;5085063;28;20028;-78
2021/08/05 09:53:10;;;;;;;396.15;10.45;;;;;10.10;101933.00;;;;5081802;28;20024;-79
2021/08/05 09:55:37;;;;;;;197.82;7.90;;;;;10.10;101917.00;;;;5086294;28;20507;-79
2021/08/05 09:58:08;;;;;;;144.10;6.90;;;;;10.20;101939.00;;;;5086283;28;20031;-78
2021/08/05 10:00:45;;;;;;;325.08;9.02;;;;;10.20;101929.00;;;;5086521;28;20065;-78
2021/08/05 10:03:11;;;;;;;270.73;8.13;;;;;10.20;101942.00;;;;5086776;28;20070;-78
2021/08/05 10:05:39;;;;;;;288.52;8.98;;;;;10.20;101949.00;;;;5083009;28;20495;-79
2021/08/05 10:08:06;;;;;;;332.98;9.18;;;;;10.20;101921.00;;;;5086298;28;20510;-78
2021/08/05 10:10:52;;;;;;;199.63;7.18;;;;;10.30;101925.00;;;;5086564;28;20055;-79
2021/08/05 10:13:34;;;;;;;357.27;10.30;;;;;10.40;101951.00;;;;5087070;28;20058;-78
2021/08/05 10:16:04;;;;;;;514.17;14.82;;;;;10.40;101948.00;;;;5086910;28;20043;-77
2021/08/05 10:18:33;;;;;;;463.95;15.02;;;;;10.50;101938.00;;;;5086511;28;20028;-78
2021/08/05 10:21:03;;;;;;;320.23;10.90;;;;;10.60;101951.00;;;;5085939;28;20396;-78
2021/08/05 10:23:30;;;;;;;584.75;17.58;;;;;10.60;101911.00;;;;5086651;28;20027;-79
2021/08/05 10:25:59;;;;;;;475.98;15.45;;;;;10.70;101904.00;;;;5086957;28;20039;-78
2021/08/05 10:28:27;;;;;;;443.17;16.25;;;;;10.80;101933.00;;;;5087034;28;20036;-79
2021/08/05 10:30:56;;;;;;;743.85;21.90;;;;;10.70;101928.00;;;;5086795;28;20044;-79
2021/08/05 10:33:23;;;;;;;604.17;18.17;;;;;10.70;101939.00;;;;5086451;28;20064;-80
2021/08/05 10:35:50;;;;;;;497.70;14.73;;;;;10.80;101944.00;;;;5086508;28;20024;-80
2021/08/05 10:38:21;;;;;;;469.90;14.45;;;;;10.70;101936.00;;;;5086307;28;20135;-79
2021/08/05 10:40:50;;;;;;;496.58;15.35;;;;;10.80;101944.00;;;;5085566;28;20399;-79
2021/08/05 10:43:17;;;;;;;499.70;14.90;;;;;10.90;101934.00;;;;5085957;28;20055;-78
2021/08/05 10:45:45;;;;;;;461.30;13.98;;;;;10.90;101920.00;;;;5086438;28;20031;-78
2021/08/05 10:48:12;;;;;;;435.08;12.93;;;;;10.90;101911.00;;;;5084966;28;20119;-78
2021/08/05 10:50:42;;;;;;;370.20;10.05;;;;;10.90;101918.00;;;;5087069;28;20050;-79
2021/08/05 10:53:30;;;;;;;467.75;14.13;;;;;10.90;101935.00;;;;5086578;28;20469;-79
2021/08/05 10:56:18;;;;;;;375.52;10.63;;;;;11.00;101936.00;;;;5086654;28;20031;-79
2021/08/05 10:59:11;;;;;;;409.70;11.82;;;;;11.20;101948.00;;;;5086784;28;20031;-79
2021/08/05 11:01:55;;;;;;;393.20;13.45;;;;;11.20;101933.00;;;;5086459;28;20067;-78
2021/08/05 11:04:40;;;;;;;212.25;7.85;;;;;11.20;101934.00;;;;5086334;28;20032;-78
2021/08/05 11:07:22;;;;;;;173.30;6.43;;;;;11.20;101934.00;;;;5086365;28;20032;-79
2021/08/05 11:09:51;;;;;;;190.73;11.25;;;;;11.30;101938.00;;;;5086729;28;20111;-79
2021/08/05 11:12:40;;;;;;;201.13;7.18;;;;;11.40;101948.00;;;;5086599;28;20065;-78
2021/08/05 11:15:23;;;;;;;242.80;6.65;;;;;11.40;101929.00;;;;5084982;28;20403;-78
2021/08/05 11:18:15;;;;;;;116.10;6.07;;;;;11.50;101944.00;;;;5089786;28;20383;-78
2021/08/05 11:20:44;;;;;;;159.90;6.03;;;;;11.50;101928.00;;;;5090515;28;20044;-78
2021/08/05 11:23:30;;;;;;;132.88;6.00;;;;;11.60;101936.00;;;;5089836;28;20031;-80
2021/08/05 11:25:57;;;;;;;79.20;4.30;;;;;11.80;101934.00;;;;5089873;28;20035;-78
2021/08/05 11:28:24;;;;;;;48.92;3.25;;;;;11.80;101939.00;;;;5090027;28;20032;-78
2021/08/05 11:30:52;;;;;;;56.00;4.70;;;;;11.80;101912.00;;;;5089816;28;20032;-82
2021/08/05 11:33:37;;;;;;;50.67;4.57;;;;;12.00;101920.00;;;;5089812;28;20032;-77
2021/08/05 11:36:22;;;;;;;62.38;4.28;;;;;12.00;101901.00;;;;5089457;28;20436;-77
2021/08/05 11:39:22;;;;;;;36.78;3.53;;;;;12.00;101938.00;;;;5089911;28;20073;-77
2021/08/05 11:42:15;;;;;;;15.50;3.22;;;;;12.00;101927.00;;;;5089826;28;20044;-77
2021/08/05 11:44:48;;;;;;;20.70;2.55;;;;;12.10;101932.00;;;;5089264;28;20107;-78
2021/08/05 11:47:28;;;;;;;153.52;6.78;;;;;12.10;101933.00;;;;5089246;28;20666;-77
2021/08/05 11:50:10;;;;;;;39.25;4.95;;;;;12.10;101937.00;;;;5089609;28;20024;-77
2021/08/05 11:52:45;;;;;;;44.15;4.03;;;;;12.30;101908.00;;;;5089442;28;20447;-79
2021/08/05 11:55:30;;;;;;;66.05;17.90;;;;;12.30;101925.00;;;;5089121;28;20055;-78
2021/08/05 11:57:58;;;;;;;25.83;5.20;;;;;12.40;101912.00;;;;5089869;28;20020;-77
2021/08/05 12:00:26;;;;;;;35.03;3.45;;;;;12.50;101944.00;;;;5089250;28;20031;-77
2021/08/05 12:02:54;;;;;;;15.35;2.40;;;;;12.50;101927.00;;;;5088870;28;20667;-77
2021/08/05 12:05:26;;;;;;;16.45;2.20;;;;;12.90;101912.00;;;;5089242;28;20081;-77
2021/08/05 12:07:54;;;;;;;18.50;2.60;;;;;12.80;101919.00;;;;5089448;28;20032;-78
2021/08/05 12:10:31;;;;;;;92.75;4.43;;;;;12.90;101944.00;;;;5090950;28;20554;-77
2021/08/05 12:13:09;;;;;;;104.75;4.43;;;;;13.00;101941.00;;;;5088631;28;20031;-77
2021/08/05 12:15:41;;;;;;;15.85;2.10;;;;;13.20;101922.00;;;;5089355;28;20077;-77
2021/08/05 12:18:09;;;;;;;10.32;2.50;;;;;13.40;101935.00;;;;5088494;28;20052;-77
2021/08/05 12:20:41;;;;;;;16.23;3.08;;;;;13.50;101916.00;;;;5088867;28;20091;-79
2021/08/05 12:23:13;;;;;;;16.30;5.45;;;;;13.70;101929.00;;;;5088839;28;20081;-78